sensor_id;sensor_type;location;lat;lon;timestamp;P1;durP1;ratioP1;P2;durP2;ratioP2
47053;SDS011;32811;52.382;5.270;2023-04-24T00:00:46;2.08;;;1.40;;
47053;SDS011;32811;52.382;5.270;2023-04-24T00:03:13;2.35;;;1.52;;
47053;SDS011;32811;52.382;5.270;2023-04-24T00:05:40;2.33;;;1.58;;
47053;SDS011;32811;52.382;5.270;2023-04-24T00:08:07;3.10;;;1.77;;
47053;SDS011;32811;52.382;5.270;2023-04-24T00:10:34;2.55;;;2.25;;
47053;SDS011;32811;52.382;5.270;2023-04-24T00:13:00;2.63;;;2.00;;
47053;SDS011;32811;52.382;5.270;2023-04-24T00:15:28;4.18;;;2.53;;
47053;SDS011;32811;52.382;5.270;2023-04-24T00:17:54;5.20;;;3.05;;
47053;SDS011;32811;52.382;5.270;2023-04-24T00:20:21;3.38;;;2.75;;
47053;SDS011;32811;52.382;5.270;2023-04-24T00:22:48;5.13;;;2.90;;
47053;SDS011;32811;52.382;5.270;2023-04-24T00:25:15;2.97;;;2.75;;
47053;SDS011;32811;52.382;5.270;2023-04-24T00:27:42;3.25;;;2.95;;
47053;SDS011;32811;52.382;5.270;2023-04-24T00:30:08;4.80;;;3.30;;
47053;SDS011;32811;52.382;5.270;2023-04-24T00:32:35;3.05;;;2.75;;
47053;SDS011;32811;52.382;5.270;2023-04-24T00:35:02;5.05;;;3.42;;
47053;SDS011;32811;52.382;5.270;2023-04-24T00:37:29;3.22;;;2.97;;
47053;SDS011;32811;52.382;5.270;2023-04-24T00:39:55;5.65;;;3.08;;
47053;SDS011;32811;52.382;5.270;2023-04-24T00:42:22;4.47;;;4.07;;
47053;SDS011;32811;52.382;5.270;2023-04-24T00:44:49;3.78;;;3.35;;
47053;SDS011;32811;52.382;5.270;2023-04-24T00:47:17;5.15;;;3.78;;
47053;SDS011;32811;52.382;5.270;2023-04-24T00:49:45;4.60;;;3.60;;
47053;SDS011;32811;52.382;5.270;2023-04-24T00:52:11;3.95;;;3.58;;
47053;SDS011;32811;52.382;5.270;2023-04-24T00:54:38;4.32;;;4.00;;
47053;SDS011;32811;52.382;5.270;2023-04-24T00:57:05;5.28;;;4.78;;
47053;SDS011;32811;52.382;5.270;2023-04-24T00:59:32;6.00;;;4.88;;
47053;SDS011;32811;52.382;5.270;2023-04-24T01:01:58;3.50;;;3.20;;
47053;SDS011;32811;52.382;5.270;2023-04-24T01:04:25;1.33;;;1.23;;
47053;SDS011;32811;52.382;5.270;2023-04-24T01:06:53;0.80;;;0.80;;
47053;SDS011;32811;52.382;5.270;2023-04-24T01:09:23;5.05;;;0.30;;
47053;SDS011;32811;52.382;5.270;2023-04-24T01:11:50;2.78;;;0.45;;
47053;SDS011;32811;52.382;5.270;2023-04-24T01:14:17;0.30;;;0.10;;
47053;SDS011;32811;52.382;5.270;2023-04-24T01:16:43;0.85;;;0.15;;
47053;SDS011;32811;52.382;5.270;2023-04-24T01:19:10;0.28;;;0.10;;
47053;SDS011;32811;52.382;5.270;2023-04-24T01:21:38;0.63;;;0.20;;
47053;SDS011;32811;52.382;5.270;2023-04-24T01:24:06;0.35;;;0.00;;
47053;SDS011;32811;52.382;5.270;2023-04-24T01:26:33;1.45;;;0.75;;
47053;SDS011;32811;52.382;5.270;2023-04-24T01:29:00;0.60;;;0.13;;
47053;SDS011;32811;52.382;5.270;2023-04-24T01:31:28;0.95;;;0.22;;
47053;SDS011;32811;52.382;5.270;2023-04-24T01:33:55;1.13;;;0.28;;
47053;SDS011;32811;52.382;5.270;2023-04-24T01:36:22;1.52;;;0.60;;
47053;SDS011;32811;52.382;5.270;2023-04-24T01:38:52;2.10;;;1.20;;
47053;SDS011;32811;52.382;5.270;2023-04-24T01:41:19;2.42;;;1.50;;
47053;SDS011;32811;52.382;5.270;2023-04-24T01:43:46;1.05;;;0.73;;
47053;SDS011;32811;52.382;5.270;2023-04-24T01:46:14;1.42;;;0.75;;
47053;SDS011;32811;52.382;5.270;2023-04-24T01:48:41;0.63;;;0.40;;
47053;SDS011;32811;52.382;5.270;2023-04-24T01:51:08;0.40;;;0.38;;
47053;SDS011;32811;52.382;5.270;2023-04-24T01:53:34;4.13;;;0.43;;
47053;SDS011;32811;52.382;5.270;2023-04-24T01:56:01;0.15;;;0.05;;
47053;SDS011;32811;52.382;5.270;2023-04-24T01:58:28;0.30;;;0.10;;
47053;SDS011;32811;52.382;5.270;2023-04-24T02:00:58;0.40;;;0.20;;
47053;SDS011;32811;52.382;5.270;2023-04-24T02:03:26;3.72;;;0.15;;
47053;SDS011;32811;52.382;5.270;2023-04-24T02:05:53;0.28;;;0.10;;
47053;SDS011;32811;52.382;5.270;2023-04-24T02:08:20;0.80;;;0.20;;
47053;SDS011;32811;52.382;5.270;2023-04-24T02:10:46;2.20;;;0.32;;
47053;SDS011;32811;52.382;5.270;2023-04-24T02:13:13;0.10;;;0.10;;
47053;SDS011;32811;52.382;5.270;2023-04-24T02:15:40;3.53;;;0.30;;
47053;SDS011;32811;52.382;5.270;2023-04-24T02:18:06;0.60;;;0.20;;
47053;SDS011;32811;52.382;5.270;2023-04-24T02:20:33;0.38;;;0.08;;
47053;SDS011;32811;52.382;5.270;2023-04-24T02:23:01;3.65;;;0.45;;
47053;SDS011;32811;52.382;5.270;2023-04-24T02:25:28;1.05;;;0.30;;
47053;SDS011;32811;52.382;5.270;2023-04-24T02:27:54;2.17;;;0.25;;
47053;SDS011;32811;52.382;5.270;2023-04-24T02:30:21;0.08;;;0.08;;
47053;SDS011;32811;52.382;5.270;2023-04-24T02:32:47;0.77;;;0.10;;
47053;SDS011;32811;52.382;5.270;2023-04-24T02:35:14;0.10;;;0.10;;
47053;SDS011;32811;52.382;5.270;2023-04-24T02:37:41;0.32;;;0.10;;
47053;SDS011;32811;52.382;5.270;2023-04-24T02:40:08;1.17;;;0.77;;
47053;SDS011;32811;52.382;5.270;2023-04-24T02:42:35;1.85;;;0.10;;
47053;SDS011;32811;52.382;5.270;2023-04-24T02:45:01;2.58;;;0.20;;
47053;SDS011;32811;52.382;5.270;2023-04-24T02:47:28;1.85;;;0.77;;
47053;SDS011;32811;52.382;5.270;2023-04-24T02:49:55;1.02;;;0.15;;
47053;SDS011;32811;52.382;5.270;2023-04-24T02:52:21;0.57;;;0.17;;
47053;SDS011;32811;52.382;5.270;2023-04-24T02:54:48;1.98;;;0.20;;
47053;SDS011;32811;52.382;5.270;2023-04-24T02:57:14;1.30;;;0.20;;
47053;SDS011;32811;52.382;5.270;2023-04-24T02:59:41;0.43;;;0.10;;
47053;SDS011;32811;52.382;5.270;2023-04-24T03:02:08;0.50;;;0.10;;
47053;SDS011;32811;52.382;5.270;2023-04-24T03:04:35;0.55;;;0.20;;
47053;SDS011;32811;52.382;5.270;2023-04-24T03:07:02;0.00;;;0.00;;
47053;SDS011;32811;52.382;5.270;2023-04-24T03:09:30;0.10;;;0.10;;
47053;SDS011;32811;52.382;5.270;2023-04-24T03:11:57;0.55;;;0.15;;
47053;SDS011;32811;52.382;5.270;2023-04-24T03:14:24;1.02;;;0.15;;
47053;SDS011;32811;52.382;5.270;2023-04-24T03:16:51;0.10;;;0.10;;
47053;SDS011;32811;52.382;5.270;2023-04-24T03:19:17;0.10;;;0.10;;
47053;SDS011;32811;52.382;5.270;2023-04-24T03:21:44;1.60;;;0.20;;
47053;SDS011;32811;52.382;5.270;2023-04-24T03:24:11;0.60;;;0.10;;
47053;SDS011;32811;52.382;5.270;2023-04-24T03:26:37;1.75;;;0.10;;
47053;SDS011;32811;52.382;5.270;2023-04-24T03:29:04;0.00;;;0.00;;
47053;SDS011;32811;52.382;5.270;2023-04-24T03:31:30;2.35;;;0.10;;
47053;SDS011;32811;52.382;5.270;2023-04-24T03:33:57;0.73;;;0.05;;
47053;SDS011;32811;52.382;5.270;2023-04-24T03:36:24;0.15;;;0.10;;
47053;SDS011;32811;52.382;5.270;2023-04-24T03:38:52;1.23;;;0.10;;
47053;SDS011;32811;52.382;5.270;2023-04-24T03:41:18;0.10;;;0.00;;
47053;SDS011;32811;52.382;5.270;2023-04-24T03:43:45;1.65;;;0.15;;
47053;SDS011;32811;52.382;5.270;2023-04-24T03:46:11;0.45;;;0.10;;
47053;SDS011;32811;52.382;5.270;2023-04-24T03:48:39;0.28;;;0.00;;
47053;SDS011;32811;52.382;5.270;2023-04-24T03:51:05;0.00;;;0.00;;
47053;SDS011;32811;52.382;5.270;2023-04-24T03:53:32;0.52;;;0.10;;
47053;SDS011;32811;52.382;5.270;2023-04-24T03:55:58;0.63;;;0.10;;
47053;SDS011;32811;52.382;5.270;2023-04-24T03:58:25;0.30;;;0.10;;
47053;SDS011;32811;52.382;5.270;2023-04-24T04:00:52;2.83;;;0.10;;
47053;SDS011;32811;52.382;5.270;2023-04-24T04:03:18;0.38;;;0.10;;
47053;SDS011;32811;52.382;5.270;2023-04-24T04:05:45;0.10;;;0.00;;
47053;SDS011;32811;52.382;5.270;2023-04-24T04:08:12;1.38;;;0.10;;
47053;SDS011;32811;52.382;5.270;2023-04-24T04:10:39;0.50;;;0.08;;
47053;SDS011;32811;52.382;5.270;2023-04-24T04:13:05;0.52;;;0.00;;
47053;SDS011;32811;52.382;5.270;2023-04-24T04:15:32;0.47;;;0.10;;
47053;SDS011;32811;52.382;5.270;2023-04-24T04:17:59;0.52;;;0.00;;
47053;SDS011;32811;52.382;5.270;2023-04-24T04:20:25;0.63;;;0.10;;
47053;SDS011;32811;52.382;5.270;2023-04-24T04:22:52;0.25;;;0.03;;
47053;SDS011;32811;52.382;5.270;2023-04-24T04:25:18;1.27;;;0.00;;
47053;SDS011;32811;52.382;5.270;2023-04-24T04:27:46;0.00;;;0.00;;
47053;SDS011;32811;52.382;5.270;2023-04-24T04:30:14;0.15;;;0.00;;
47053;SDS011;32811;52.382;5.270;2023-04-24T04:32:41;0.40;;;0.10;;
47053;SDS011;32811;52.382;5.270;2023-04-24T04:35:07;0.30;;;0.10;;
47053;SDS011;32811;52.382;5.270;2023-04-24T04:37:35;0.55;;;0.10;;
47053;SDS011;32811;52.382;5.270;2023-04-24T04:40:02;1.88;;;0.13;;
47053;SDS011;32811;52.382;5.270;2023-04-24T04:42:33;1.13;;;0.20;;
47053;SDS011;32811;52.382;5.270;2023-04-24T04:45:07;0.80;;;0.63;;
47053;SDS011;32811;52.382;5.270;2023-04-24T04:47:35;0.60;;;0.10;;
47053;SDS011;32811;52.382;5.270;2023-04-24T04:50:02;0.75;;;0.13;;
47053;SDS011;32811;52.382;5.270;2023-04-24T04:52:30;1.80;;;0.00;;
47053;SDS011;32811;52.382;5.270;2023-04-24T04:54:56;0.47;;;0.00;;
47053;SDS011;32811;52.382;5.270;2023-04-24T04:57:23;0.20;;;0.05;;
47053;SDS011;32811;52.382;5.270;2023-04-24T04:59:49;0.15;;;0.00;;
47053;SDS011;32811;52.382;5.270;2023-04-24T05:02:16;0.50;;;0.20;;
47053;SDS011;32811;52.382;5.270;2023-04-24T05:04:43;0.32;;;0.03;;
47053;SDS011;32811;52.382;5.270;2023-04-24T05:07:09;0.60;;;0.15;;
47053;SDS011;32811;52.382;5.270;2023-04-24T05:09:36;3.03;;;0.20;;
47053;SDS011;32811;52.382;5.270;2023-04-24T05:12:03;1.15;;;0.38;;
47053;SDS011;32811;52.382;5.270;2023-04-24T05:14:30;0.50;;;0.05;;
47053;SDS011;32811;52.382;5.270;2023-04-24T05:16:56;0.40;;;0.22;;
47053;SDS011;32811;52.382;5.270;2023-04-24T05:19:23;2.05;;;0.25;;
47053;SDS011;32811;52.382;5.270;2023-04-24T05:21:50;0.88;;;0.22;;
47053;SDS011;32811;52.382;5.270;2023-04-24T05:24:16;1.75;;;0.20;;
47053;SDS011;32811;52.382;5.270;2023-04-24T05:26:43;0.60;;;0.15;;
47053;SDS011;32811;52.382;5.270;2023-04-24T05:29:09;0.45;;;0.30;;
47053;SDS011;32811;52.382;5.270;2023-04-24T05:31:36;1.85;;;0.25;;
47053;SDS011;32811;52.382;5.270;2023-04-24T05:34:02;1.58;;;0.32;;
47053;SDS011;32811;52.382;5.270;2023-04-24T05:36:29;1.10;;;0.20;;
47053;SDS011;32811;52.382;5.270;2023-04-24T05:38:57;1.20;;;0.20;;
47053;SDS011;32811;52.382;5.270;2023-04-24T05:41:23;0.63;;;0.20;;
47053;SDS011;32811;52.382;5.270;2023-04-24T05:43:50;1.70;;;0.32;;
47053;SDS011;32811;52.382;5.270;2023-04-24T05:46:17;1.00;;;0.30;;
47053;SDS011;32811;52.382;5.270;2023-04-24T05:48:43;1.90;;;0.10;;
47053;SDS011;32811;52.382;5.270;2023-04-24T05:51:10;0.28;;;0.10;;
47053;SDS011;32811;52.382;5.270;2023-04-24T05:53:36;0.95;;;0.20;;
47053;SDS011;32811;52.382;5.270;2023-04-24T05:56:03;3.15;;;0.25;;
47053;SDS011;32811;52.382;5.270;2023-04-24T05:58:30;7.70;;;0.40;;
47053;SDS011;32811;52.382;5.270;2023-04-24T06:00:56;2.60;;;0.88;;
47053;SDS011;32811;52.382;5.270;2023-04-24T06:03:24;4.97;;;2.70;;
47053;SDS011;32811;52.382;5.270;2023-04-24T06:05:51;8.93;;;5.47;;
47053;SDS011;32811;52.382;5.270;2023-04-24T06:08:18;14.50;;;5.88;;
47053;SDS011;32811;52.382;5.270;2023-04-24T06:10:44;8.48;;;6.10;;
47053;SDS011;32811;52.382;5.270;2023-04-24T06:13:11;11.85;;;7.70;;
47053;SDS011;32811;52.382;5.270;2023-04-24T06:15:38;13.38;;;7.97;;
47053;SDS011;32811;52.382;5.270;2023-04-24T06:18:04;17.48;;;8.80;;
47053;SDS011;32811;52.382;5.270;2023-04-24T06:20:31;11.10;;;8.38;;
47053;SDS011;32811;52.382;5.270;2023-04-24T06:22:58;12.80;;;6.95;;
47053;SDS011;32811;52.382;5.270;2023-04-24T06:25:25;11.75;;;7.05;;
47053;SDS011;32811;52.382;5.270;2023-04-24T06:27:52;8.52;;;6.53;;
47053;SDS011;32811;52.382;5.270;2023-04-24T06:30:19;12.30;;;6.57;;
47053;SDS011;32811;52.382;5.270;2023-04-24T06:32:45;9.10;;;6.38;;
47053;SDS011;32811;52.382;5.270;2023-04-24T06:35:12;7.70;;;5.63;;
47053;SDS011;32811;52.382;5.270;2023-04-24T06:37:39;15.60;;;6.50;;
47053;SDS011;32811;52.382;5.270;2023-04-24T06:40:08;9.95;;;6.63;;
47053;SDS011;32811;52.382;5.270;2023-04-24T06:42:35;10.10;;;6.13;;
47053;SDS011;32811;52.382;5.270;2023-04-24T06:45:02;11.75;;;6.53;;
47053;SDS011;32811;52.382;5.270;2023-04-24T06:47:30;10.38;;;5.50;;
47053;SDS011;32811;52.382;5.270;2023-04-24T06:49:57;11.65;;;5.70;;
47053;SDS011;32811;52.382;5.270;2023-04-24T06:52:24;13.73;;;6.10;;
47053;SDS011;32811;52.382;5.270;2023-04-24T06:54:50;19.17;;;6.80;;
47053;SDS011;32811;52.382;5.270;2023-04-24T06:57:17;13.73;;;6.25;;
47053;SDS011;32811;52.382;5.270;2023-04-24T06:59:44;8.48;;;4.45;;
47053;SDS011;32811;52.382;5.270;2023-04-24T07:02:11;6.53;;;4.53;;
47053;SDS011;32811;52.382;5.270;2023-04-24T07:04:37;7.70;;;4.38;;
47053;SDS011;32811;52.382;5.270;2023-04-24T07:07:04;7.78;;;4.63;;
47053;SDS011;32811;52.382;5.270;2023-04-24T07:09:33;9.93;;;5.15;;
47053;SDS011;32811;52.382;5.270;2023-04-24T07:12:01;8.73;;;4.28;;
47053;SDS011;32811;52.382;5.270;2023-04-24T07:14:28;13.95;;;4.47;;
47053;SDS011;32811;52.382;5.270;2023-04-24T07:16:54;10.00;;;4.75;;
47053;SDS011;32811;52.382;5.270;2023-04-24T07:19:21;13.98;;;4.60;;
47053;SDS011;32811;52.382;5.270;2023-04-24T07:21:47;12.25;;;4.07;;
47053;SDS011;32811;52.382;5.270;2023-04-24T07:24:14;10.48;;;4.30;;
47053;SDS011;32811;52.382;5.270;2023-04-24T07:26:40;8.90;;;3.53;;
47053;SDS011;32811;52.382;5.270;2023-04-24T07:29:07;9.20;;;4.18;;
47053;SDS011;32811;52.382;5.270;2023-04-24T07:31:34;8.77;;;3.75;;
47053;SDS011;32811;52.382;5.270;2023-04-24T07:34:01;8.15;;;4.00;;
47053;SDS011;32811;52.382;5.270;2023-04-24T07:36:27;9.18;;;4.28;;
47053;SDS011;32811;52.382;5.270;2023-04-24T07:38:54;10.68;;;5.10;;
47053;SDS011;32811;52.382;5.270;2023-04-24T07:41:22;5.35;;;3.78;;
47053;SDS011;32811;52.382;5.270;2023-04-24T07:43:50;10.15;;;3.58;;
47053;SDS011;32811;52.382;5.270;2023-04-24T07:46:17;9.75;;;4.10;;
47053;SDS011;32811;52.382;5.270;2023-04-24T07:48:44;10.85;;;4.03;;
47053;SDS011;32811;52.382;5.270;2023-04-24T07:51:10;13.05;;;3.95;;
47053;SDS011;32811;52.382;5.270;2023-04-24T07:53:39;10.75;;;3.83;;
47053;SDS011;32811;52.382;5.270;2023-04-24T07:56:06;7.18;;;3.75;;
47053;SDS011;32811;52.382;5.270;2023-04-24T07:58:33;6.47;;;3.40;;
47053;SDS011;32811;52.382;5.270;2023-04-24T08:01:00;7.07;;;3.70;;
47053;SDS011;32811;52.382;5.270;2023-04-24T08:03:27;13.05;;;3.55;;
47053;SDS011;32811;52.382;5.270;2023-04-24T08:05:54;11.43;;;3.67;;
47053;SDS011;32811;52.382;5.270;2023-04-24T08:08:21;12.40;;;2.90;;
47053;SDS011;32811;52.382;5.270;2023-04-24T08:10:49;9.32;;;2.60;;
47053;SDS011;32811;52.382;5.270;2023-04-24T08:13:16;11.48;;;2.75;;
47053;SDS011;32811;52.382;5.270;2023-04-24T08:15:42;15.70;;;2.45;;
47053;SDS011;32811;52.382;5.270;2023-04-24T08:18:09;16.38;;;3.03;;
47053;SDS011;32811;52.382;5.270;2023-04-24T08:20:38;12.88;;;3.33;;
47053;SDS011;32811;52.382;5.270;2023-04-24T08:23:05;12.15;;;1.80;;
47053;SDS011;32811;52.382;5.270;2023-04-24T08:25:31;13.27;;;2.17;;
47053;SDS011;32811;52.382;5.270;2023-04-24T08:27:58;14.52;;;3.60;;
47053;SDS011;32811;52.382;5.270;2023-04-24T08:30:25;18.13;;;2.75;;
47053;SDS011;32811;52.382;5.270;2023-04-24T08:32:51;13.98;;;2.38;;
47053;SDS011;32811;52.382;5.270;2023-04-24T08:35:18;12.80;;;1.77;;
47053;SDS011;32811;52.382;5.270;2023-04-24T08:37:44;12.18;;;2.67;;
47053;SDS011;32811;52.382;5.270;2023-04-24T08:40:12;16.70;;;2.85;;
47053;SDS011;32811;52.382;5.270;2023-04-24T08:42:44;13.25;;;2.83;;
47053;SDS011;32811;52.382;5.270;2023-04-24T08:45:12;19.77;;;4.63;;
47053;SDS011;32811;52.382;5.270;2023-04-24T08:47:40;13.00;;;2.38;;
47053;SDS011;32811;52.382;5.270;2023-04-24T08:50:08;12.43;;;2.78;;
47053;SDS011;32811;52.382;5.270;2023-04-24T08:52:35;17.65;;;2.20;;
47053;SDS011;32811;52.382;5.270;2023-04-24T08:55:02;15.05;;;2.40;;
47053;SDS011;32811;52.382;5.270;2023-04-24T08:57:29;11.80;;;1.67;;
47053;SDS011;32811;52.382;5.270;2023-04-24T08:59:57;9.07;;;2.13;;
47053;SDS011;32811;52.382;5.270;2023-04-24T09:02:25;4.57;;;1.33;;
47053;SDS011;32811;52.382;5.270;2023-04-24T09:04:52;9.02;;;2.60;;
47053;SDS011;32811;52.382;5.270;2023-04-24T09:07:19;15.15;;;1.92;;
47053;SDS011;32811;52.382;5.270;2023-04-24T09:09:50;5.95;;;1.20;;
47053;SDS011;32811;52.382;5.270;2023-04-24T09:12:17;15.10;;;2.20;;
47053;SDS011;32811;52.382;5.270;2023-04-24T09:14:45;12.88;;;0.98;;
47053;SDS011;32811;52.382;5.270;2023-04-24T09:17:12;7.45;;;1.40;;
47053;SDS011;32811;52.382;5.270;2023-04-24T09:19:39;9.43;;;1.73;;
47053;SDS011;32811;52.382;5.270;2023-04-24T09:22:07;11.40;;;2.60;;
47053;SDS011;32811;52.382;5.270;2023-04-24T09:24:35;12.93;;;1.80;;
47053;SDS011;32811;52.382;5.270;2023-04-24T09:27:02;9.07;;;1.33;;
47053;SDS011;32811;52.382;5.270;2023-04-24T09:29:28;7.25;;;1.52;;
47053;SDS011;32811;52.382;5.270;2023-04-24T09:31:55;6.65;;;1.02;;
47053;SDS011;32811;52.382;5.270;2023-04-24T09:34:22;10.30;;;1.25;;
47053;SDS011;32811;52.382;5.270;2023-04-24T09:36:50;6.57;;;1.50;;
47053;SDS011;32811;52.382;5.270;2023-04-24T09:39:17;9.90;;;1.08;;
47053;SDS011;32811;52.382;5.270;2023-04-24T09:41:48;12.23;;;3.03;;
47053;SDS011;32811;52.382;5.270;2023-04-24T09:44:17;5.00;;;1.00;;
47053;SDS011;32811;52.382;5.270;2023-04-24T09:46:51;12.77;;;2.38;;
47053;SDS011;32811;52.382;5.270;2023-04-24T09:49:24;7.75;;;1.30;;
47053;SDS011;32811;52.382;5.270;2023-04-24T09:51:51;5.93;;;2.00;;
47053;SDS011;32811;52.382;5.270;2023-04-24T09:54:19;6.40;;;0.95;;
47053;SDS011;32811;52.382;5.270;2023-04-24T09:56:48;9.63;;;1.15;;
47053;SDS011;32811;52.382;5.270;2023-04-24T09:59:16;8.80;;;1.38;;
47053;SDS011;32811;52.382;5.270;2023-04-24T10:01:45;11.05;;;1.48;;
47053;SDS011;32811;52.382;5.270;2023-04-24T10:04:18;6.35;;;0.85;;
47053;SDS011;32811;52.382;5.270;2023-04-24T10:06:48;5.90;;;1.17;;
47053;SDS011;32811;52.382;5.270;2023-04-24T10:09:15;4.95;;;1.40;;
47053;SDS011;32811;52.382;5.270;2023-04-24T10:11:44;6.93;;;1.70;;
47053;SDS011;32811;52.382;5.270;2023-04-24T10:14:14;7.10;;;1.67;;
47053;SDS011;32811;52.382;5.270;2023-04-24T10:16:46;8.60;;;1.15;;
47053;SDS011;32811;52.382;5.270;2023-04-24T10:19:14;7.35;;;1.13;;
47053;SDS011;32811;52.382;5.270;2023-04-24T10:21:42;5.25;;;0.88;;
47053;SDS011;32811;52.382;5.270;2023-04-24T10:24:16;8.38;;;1.00;;
47053;SDS011;32811;52.382;5.270;2023-04-24T10:26:45;2.47;;;0.63;;
47053;SDS011;32811;52.382;5.270;2023-04-24T10:29:12;6.65;;;0.70;;
47053;SDS011;32811;52.382;5.270;2023-04-24T10:31:41;8.57;;;1.23;;
47053;SDS011;32811;52.382;5.270;2023-04-24T10:34:09;8.70;;;0.68;;
47053;SDS011;32811;52.382;5.270;2023-04-24T10:36:37;3.95;;;0.43;;
47053;SDS011;32811;52.382;5.270;2023-04-24T10:39:08;5.10;;;0.45;;
47053;SDS011;32811;52.382;5.270;2023-04-24T10:41:38;2.42;;;0.30;;
47053;SDS011;32811;52.382;5.270;2023-04-24T10:44:08;3.85;;;0.68;;
47053;SDS011;32811;52.382;5.270;2023-04-24T10:46:36;9.45;;;1.55;;
47053;SDS011;32811;52.382;5.270;2023-04-24T10:49:06;4.03;;;0.60;;
47053;SDS011;32811;52.382;5.270;2023-04-24T10:54:27;2.88;;;0.60;;
47053;SDS011;32811;52.382;5.270;2023-04-24T10:57:25;1.95;;;0.75;;
47053;SDS011;32811;52.382;5.270;2023-04-24T10:59:50;2.97;;;0.88;;
47053;SDS011;32811;52.382;5.270;2023-04-24T11:02:36;1.00;;;0.47;;
47053;SDS011;32811;52.382;5.270;2023-04-24T11:05:04;3.50;;;0.73;;
47053;SDS011;32811;52.382;5.270;2023-04-24T11:10:40;3.75;;;0.50;;
47053;SDS011;32811;52.382;5.270;2023-04-24T11:13:10;3.92;;;0.40;;
47053;SDS011;32811;52.382;5.270;2023-04-24T11:15:38;1.98;;;0.28;;
47053;SDS011;32811;52.382;5.270;2023-04-24T11:18:12;3.28;;;0.57;;
47053;SDS011;32811;52.382;5.270;2023-04-24T11:20:43;4.75;;;0.77;;
47053;SDS011;32811;52.382;5.270;2023-04-24T11:23:11;4.65;;;0.50;;
47053;SDS011;32811;52.382;5.270;2023-04-24T11:25:39;5.22;;;0.60;;
47053;SDS011;32811;52.382;5.270;2023-04-24T11:28:06;5.45;;;0.57;;
47053;SDS011;32811;52.382;5.270;2023-04-24T11:30:33;4.28;;;0.45;;
47053;SDS011;32811;52.382;5.270;2023-04-24T11:33:03;4.15;;;0.38;;
47053;SDS011;32811;52.382;5.270;2023-04-24T11:35:34;1.58;;;0.20;;
47053;SDS011;32811;52.382;5.270;2023-04-24T11:38:05;2.25;;;0.75;;
47053;SDS011;32811;52.382;5.270;2023-04-24T11:40:36;4.40;;;0.50;;
47053;SDS011;32811;52.382;5.270;2023-04-24T11:43:04;2.38;;;0.40;;
47053;SDS011;32811;52.382;5.270;2023-04-24T11:45:33;3.05;;;0.57;;
47053;SDS011;32811;52.382;5.270;2023-04-24T11:48:00;4.40;;;0.98;;
47053;SDS011;32811;52.382;5.270;2023-04-24T11:50:29;3.08;;;0.60;;
47053;SDS011;32811;52.382;5.270;2023-04-24T11:52:56;4.90;;;1.08;;
47053;SDS011;32811;52.382;5.270;2023-04-24T11:55:24;5.47;;;0.57;;
47053;SDS011;32811;52.382;5.270;2023-04-24T11:57:53;4.88;;;0.80;;
47053;SDS011;32811;52.382;5.270;2023-04-24T12:00:25;4.97;;;0.60;;
47053;SDS011;32811;52.382;5.270;2023-04-24T12:03:06;3.03;;;0.40;;
47053;SDS011;32811;52.382;5.270;2023-04-24T12:05:35;2.63;;;0.30;;
47053;SDS011;32811;52.382;5.270;2023-04-24T12:08:02;5.20;;;0.40;;
47053;SDS011;32811;52.382;5.270;2023-04-24T12:10:29;3.03;;;0.57;;
47053;SDS011;32811;52.382;5.270;2023-04-24T12:12:58;4.03;;;0.75;;
47053;SDS011;32811;52.382;5.270;2023-04-24T12:15:26;5.57;;;0.73;;
47053;SDS011;32811;52.382;5.270;2023-04-24T12:17:53;7.22;;;0.73;;
47053;SDS011;32811;52.382;5.270;2023-04-24T12:20:31;2.92;;;0.73;;
47053;SDS011;32811;52.382;5.270;2023-04-24T12:22:59;6.90;;;1.85;;
47053;SDS011;32811;52.382;5.270;2023-04-24T12:25:30;7.38;;;1.95;;
47053;SDS011;32811;52.382;5.270;2023-04-24T12:30:33;6.15;;;0.75;;
47053;SDS011;32811;52.382;5.270;2023-04-24T12:33:02;6.32;;;0.95;;
47053;SDS011;32811;52.382;5.270;2023-04-24T12:35:29;2.97;;;1.10;;
47053;SDS011;32811;52.382;5.270;2023-04-24T12:38:08;4.50;;;1.30;;
47053;SDS011;32811;52.382;5.270;2023-04-24T12:40:36;6.50;;;1.40;;
47053;SDS011;32811;52.382;5.270;2023-04-24T12:43:12;4.68;;;0.50;;
47053;SDS011;32811;52.382;5.270;2023-04-24T12:45:47;5.22;;;0.93;;
47053;SDS011;32811;52.382;5.270;2023-04-24T12:48:14;6.13;;;1.50;;
47053;SDS011;32811;52.382;5.270;2023-04-24T12:50:41;10.32;;;2.35;;
47053;SDS011;32811;52.382;5.270;2023-04-24T12:53:10;6.28;;;1.65;;
47053;SDS011;32811;52.382;5.270;2023-04-24T12:55:37;21.73;;;1.80;;
47053;SDS011;32811;52.382;5.270;2023-04-24T12:58:03;13.30;;;1.70;;
47053;SDS011;32811;52.382;5.270;2023-04-24T13:00:30;11.77;;;0.98;;
47053;SDS011;32811;52.382;5.270;2023-04-24T13:02:57;7.78;;;1.42;;
47053;SDS011;32811;52.382;5.270;2023-04-24T13:05:24;7.47;;;1.10;;
47053;SDS011;32811;52.382;5.270;2023-04-24T13:07:51;11.95;;;1.85;;
47053;SDS011;32811;52.382;5.270;2023-04-24T13:10:17;5.80;;;1.33;;
47053;SDS011;32811;52.382;5.270;2023-04-24T13:12:45;9.55;;;1.83;;
47053;SDS011;32811;52.382;5.270;2023-04-24T13:15:12;11.65;;;2.20;;
47053;SDS011;32811;52.382;5.270;2023-04-24T13:17:39;8.88;;;2.15;;
47053;SDS011;32811;52.382;5.270;2023-04-24T13:20:06;7.78;;;1.42;;
47053;SDS011;32811;52.382;5.270;2023-04-24T13:22:33;12.35;;;1.30;;
47053;SDS011;32811;52.382;5.270;2023-04-24T13:24:59;7.45;;;1.70;;
47053;SDS011;32811;52.382;5.270;2023-04-24T13:27:27;11.40;;;1.25;;
47053;SDS011;32811;52.382;5.270;2023-04-24T13:29:54;12.63;;;1.73;;
47053;SDS011;32811;52.382;5.270;2023-04-24T13:32:20;15.15;;;2.17;;
47053;SDS011;32811;52.382;5.270;2023-04-24T13:34:47;13.60;;;2.45;;
47053;SDS011;32811;52.382;5.270;2023-04-24T13:37:14;6.90;;;1.88;;
47053;SDS011;32811;52.382;5.270;2023-04-24T13:39:40;10.43;;;2.80;;
47053;SDS011;32811;52.382;5.270;2023-04-24T13:42:10;7.65;;;1.88;;
47053;SDS011;32811;52.382;5.270;2023-04-24T13:44:36;7.13;;;2.00;;
47053;SDS011;32811;52.382;5.270;2023-04-24T13:47:03;18.67;;;2.47;;
47053;SDS011;32811;52.382;5.270;2023-04-24T13:49:30;10.00;;;1.83;;
47053;SDS011;32811;52.382;5.270;2023-04-24T13:51:56;16.10;;;2.10;;
47053;SDS011;32811;52.382;5.270;2023-04-24T13:54:23;5.93;;;1.48;;
47053;SDS011;32811;52.382;5.270;2023-04-24T13:56:52;9.95;;;1.80;;
47053;SDS011;32811;52.382;5.270;2023-04-24T13:59:22;6.20;;;1.70;;
47053;SDS011;32811;52.382;5.270;2023-04-24T14:01:48;7.68;;;2.33;;
47053;SDS011;32811;52.382;5.270;2023-04-24T14:04:15;10.75;;;1.20;;
47053;SDS011;32811;52.382;5.270;2023-04-24T14:06:43;3.58;;;1.20;;
47053;SDS011;32811;52.382;5.270;2023-04-24T14:09:10;5.32;;;1.27;;
47053;SDS011;32811;52.382;5.270;2023-04-24T14:11:36;8.45;;;1.67;;
47053;SDS011;32811;52.382;5.270;2023-04-24T14:14:03;12.00;;;1.85;;
47053;SDS011;32811;52.382;5.270;2023-04-24T14:16:29;11.90;;;1.80;;
47053;SDS011;32811;52.382;5.270;2023-04-24T14:18:57;15.38;;;4.45;;
47053;SDS011;32811;52.382;5.270;2023-04-24T14:21:23;9.20;;;3.33;;
47053;SDS011;32811;52.382;5.270;2023-04-24T14:23:50;10.07;;;1.40;;
47053;SDS011;32811;52.382;5.270;2023-04-24T14:26:17;9.38;;;1.50;;
47053;SDS011;32811;52.382;5.270;2023-04-24T14:28:43;2.90;;;0.90;;
47053;SDS011;32811;52.382;5.270;2023-04-24T14:31:10;7.18;;;1.58;;
47053;SDS011;32811;52.382;5.270;2023-04-24T14:33:37;10.77;;;1.30;;
47053;SDS011;32811;52.382;5.270;2023-04-24T14:36:04;8.65;;;1.85;;
47053;SDS011;32811;52.382;5.270;2023-04-24T14:38:31;7.43;;;2.40;;
47053;SDS011;32811;52.382;5.270;2023-04-24T14:40:58;10.55;;;2.47;;
47053;SDS011;32811;52.382;5.270;2023-04-24T14:43:33;10.18;;;1.70;;
47053;SDS011;32811;52.382;5.270;2023-04-24T14:46:02;6.43;;;1.73;;
47053;SDS011;32811;52.382;5.270;2023-04-24T14:48:29;8.80;;;1.75;;
47053;SDS011;32811;52.382;5.270;2023-04-24T14:50:56;9.57;;;2.33;;
47053;SDS011;32811;52.382;5.270;2023-04-24T14:53:22;8.75;;;1.98;;
47053;SDS011;32811;52.382;5.270;2023-04-24T14:55:49;9.27;;;2.40;;